• Join FlightAware (Why Join?)
  • Login
  • US Flag 
07:46PM EDT


 

Airport Tracker/Info


-or-


 

Live Flight TrackerFlight Track Log ✈ UAL256 ✈ 04-May-2013 ✈ KIAD - KLAX

Flight Track Log - Related Links

Times and Time Zones

All times are in EDT time to prevent confusion due to time zone crossing. See the UAL256 flight status page for this flight to view local times or setup timezone preferences in your user account.

Time Position Orientation Groundspeed Altitude Reporting Facility
EDT Latitude Longitude Course Direction KTS MPH feet Rate Location/Type
03:06PM 38.9000 -77.4333 270° West 184 212 1,600  Level Potomac TRACON
03:07PM 38.8500 -77.4667 207° Southwest 250 288 2,800 1,860 Climbing Potomac TRACON
03:08PM 38.8056 -77.8455 228° Southwest  Level FlightAware Approximate
03:08PM 38.8000 -77.5500 232° Southwest 283 326 5,400  Level Potomac TRACON
03:09PM 38.7952 -77.9641 288° West  Level FlightAware Approximate
03:10PM 38.8311 -78.1078 288° West  Level FlightAware Approximate
03:10PM 38.7756 -77.7247 260° West 292 336 10,100  Level Washington Center
03:11PM 38.8500 -78.2550 270° West  Level FlightAware Approximate
03:11PM 38.7983 -77.8506 283° West 320 368 10,800  Level Washington Center
03:12PM 38.8208 -77.9844 282° West 363 418 13,000 2,040 Climbing Washington Center
03:13PM 38.8431 -78.1264 281° West 391 450 15,000 1,500 Climbing Washington Center
03:14PM 38.8542 -78.2761 275° West 411 473 16,100 960 Climbing Washington Center
03:15PM 38.8528 -78.4306 269° West 424 488 17,000 420 Climbing Washington Center
03:16PM 38.8511 -78.5850 269° West 431 496 17,000 720 Level Washington Center
03:17PM 38.8492 -78.7397 269° West 437 503 18,500 1,380 Climbing Washington Center
03:18PM 38.8469 -78.8994 269° West 442 509 19,800 1,200 Climbing Washington Center
03:19PM 38.8425 -79.0619 268° West 452 520 21,000 1,320 Climbing Washington Center
03:20PM 38.8356 -79.2269 267° West 459 528 22,500 1,140 Climbing Washington Center
03:21PM 38.8075 -79.3933 258° West 466 536 23,300 960 Climbing Washington Center
03:22PM 38.7764 -79.5781 258° West 471 542 24,500 1,020 Climbing Washington Center
03:23PM 38.7458 -79.7442 257° West 478 550 25,400 660 Climbing Washington Center
03:24PM 38.7175 -79.8969 257° West 488 562 25,900 960 Climbing Washington Center
03:26PM 38.6553 -80.2072 256° West 475 547 28,300 1,080 Climbing Indianapolis Center
03:27PM 38.6200 -80.4031 257° West 473 544 29,300 780 Climbing Indianapolis Center
03:28PM 38.6028 -80.5706 263° West 478 550 30,000 720 Climbing Indianapolis Center
03:29PM 38.6022 -80.7408 270° West 477 549 30,800 780 Climbing Indianapolis Center
03:30PM 38.6144 -80.9092 275° West 478 550 31,700 840 Climbing Indianapolis Center
03:31PM 38.6247 -81.0781 275° West 476 548 32,600 660 Climbing Indianapolis Center
03:32PM 38.6358 -81.2483 275° West 479 551 33,100 660 Climbing Indianapolis Center
03:33PM 38.6472 -81.4386 274° West 477 549 34,000 420 Climbing Indianapolis Center
03:34PM 38.6583 -81.6083 275° West 478 550 34,000  Level Indianapolis Center
03:35PM 38.6686 -81.7722 275° West 482 555 34,000  Level Indianapolis Center
03:36PM 38.6781 -81.9422 274° West 479 551 34,000  Level Indianapolis Center
03:37PM 38.6881 -82.1122 274° West 477 549 34,000  Level Indianapolis Center
03:38PM 38.6969 -82.2828 274° West 480 552 34,000  Level Indianapolis Center
03:39PM 38.7061 -82.4533 274° West 480 552 34,000  Level Indianapolis Center
03:40PM 38.7169 -82.6600 274° West 483 556 34,000  Level Indianapolis Center
03:41PM 38.7256 -82.8333 274° West 487 560 34,000  Level Indianapolis Center
03:42PM 38.7350 -83.0047 274° West 484 557 34,000  Level Indianapolis Center
03:43PM 38.7422 -83.1733 273° West 484 557 34,000 -60 Level Indianapolis Center
03:44PM 38.7500 -83.3483 273° West 487 560 33,900  Descending Indianapolis Center
03:45PM 38.7589 -83.5236 274° West 487 560 34,000  Climbing Indianapolis Center
03:46PM 38.7667 -83.6981 273° West 486 559 34,000  Level Indianapolis Center
03:47PM 38.7728 -83.8736 273° West 487 560 34,000  Level Indianapolis Center
03:48PM 38.7814 -84.0778 273° West 487 560 34,000 -60 Level Indianapolis Center
03:49PM 38.7886 -84.2519 273° West 485 558 33,900 -60 Descending Indianapolis Center
03:50PM 38.7944 -84.4269 273° West 485 558 33,900  Level Indianapolis Center
03:51PM 38.8008 -84.5908 273° West 484 557 34,000  Climbing Indianapolis Center
03:52PM 38.8061 -84.7622 272° West 484 557 34,000  Level Indianapolis Center
03:53PM 38.8125 -84.9339 273° West 484 557 34,000  Level Indianapolis Center
03:54PM 38.8175 -85.1067 272° West 486 559 34,000  Level Indianapolis Center
03:55PM 38.8239 -85.3125 272° West 483 556 34,000  Level Indianapolis Center
03:56PM 38.8294 -85.4822 272° West 478 550 34,000  Level Indianapolis Center
03:57PM 38.8342 -85.6533 272° West 479 551 34,000  Level Indianapolis Center
03:58PM 38.8381 -85.8225 272° West 477 549 34,000  Level Indianapolis Center
03:59PM 38.8422 -85.9756 272° West 477 549 34,000  Level Indianapolis Center
04:00PM 38.8461 -86.1803 271° West 478 550 34,000  Level Indianapolis Center
04:01PM 38.8500 -86.3506 272° West 478 550 34,000  Level Indianapolis Center
04:02PM 38.8533 -86.5219 271° West 481 554 34,000  Level Indianapolis Center
04:03PM 38.8567 -86.6947 271° West 484 557 34,000  Level Indianapolis Center
04:05PM 38.8586 -86.8669 271° West 484 557 34,000  Level Indianapolis Center
04:06PM 38.8619 -87.0408 271° West 488 562 34,000  Level Indianapolis Center
04:07PM 38.8642 -87.2144 271° West 489 563 34,000  Level Indianapolis Center
04:08PM 38.8661 -87.3886 271° West 490 564 34,000  Level Indianapolis Center
04:09PM 38.8692 -87.5997 271° West 494 568 34,000  Level Indianapolis Center
04:10PM 38.8703 -87.7747 271° West 493 567 34,000  Level Indianapolis Center
04:11PM 38.8719 -87.9531 271° West 498 573 34,000  Level Indianapolis Center
04:11PM 38.8703 -88.0261 268° West 496 571 34,000  Level Kansas City Center
04:12PM 38.8711 -88.2042 270° West 497 572 34,000  Level Kansas City Center
04:13PM 38.8711 -88.4197 270° West 501 577 34,000  Level Kansas City Center
04:14PM 38.8717 -88.6000 270° West 503 579 34,000  Level Kansas City Center
04:15PM 38.8717 -88.7828 270° West 505 581 34,000  Level Kansas City Center
04:16PM 38.8758 -88.9650 272° West 509 586 34,000  Level Kansas City Center
04:17PM 38.8836 -89.1528 273° West 513 590 34,000  Level Kansas City Center
04:18PM 38.8914 -89.3519 273° West 520 598 34,000  Level Kansas City Center
04:19PM 38.9003 -89.5361 274° West 521 600 34,000  Level Kansas City Center
04:20PM 38.9058 -89.7044 272° West 527 606 34,000  Level Kansas City Center
04:21PM 38.9122 -89.8906 273° West 528 608 34,000  Level Kansas City Center
04:22PM 38.9208 -90.0908 273° West 522 601 34,000  Level Kansas City Center
04:23PM 38.9272 -90.2792 273° West 526 605 34,000  Level Kansas City Center
04:25PM 38.9339 -90.5064 272° West 528 608 34,000  Level Kansas City Center
04:26PM 38.9389 -90.6953 272° West 528 608 34,000  Level Kansas City Center
04:27PM 38.9433 -90.8533 272° West 529 609 34,000  Level Kansas City Center
04:28PM 38.9497 -91.0781 272° West 528 608 34,000  Level Kansas City Center
04:29PM 38.9533 -91.2661 271° West 529 609 34,000 60 Level Kansas City Center
04:30PM 38.9581 -91.4528 272° West 525 604 34,200 960 Climbing Kansas City Center
04:31PM 38.9617 -91.6333 272° West 514 592 36,000 840 Climbing Kansas City Center
04:32PM 38.9647 -91.8028 271° West 491 565 36,000  Level Kansas City Center
04:33PM 38.9667 -91.9775 271° West 487 560 36,000  Level Kansas City Center
04:34PM 38.9694 -92.1853 271° West 486 559 36,000  Level Kansas City Center
04:35PM 38.9719 -92.3600 271° West 487 560 36,000  Level Kansas City Center
04:36PM 38.9742 -92.5347 271° West 490 564 36,000  Level Kansas City Center
04:37PM 38.9761 -92.7089 271° West 489 563 36,000  Level Kansas City Center
04:38PM 38.9781 -92.8831 271° West 489 563 36,000  Level Kansas City Center
04:39PM 38.9789 -93.0558 270° West 486 559 36,000  Level Kansas City Center
04:40PM 38.9800 -93.2328 271° West 490 564 36,000  Level Kansas City Center
04:41PM 38.9806 -93.4075 270° West 491 565 36,000 -60 Level Kansas City Center
04:42PM 38.9800 -93.6206 270° West 496 571 35,900  Descending Kansas City Center
04:43PM 38.9831 -93.7878 271° West 485 558 36,000  Climbing Kansas City Center
04:44PM 38.9831 -93.9528 270° West 482 555 36,000  Level Kansas City Center
04:45PM 38.9833 -94.1475 270° West 487 560 36,000 -300 Level Kansas City Center
04:46PM 38.9825 -94.3131 270° West 483 556 35,500 -840 Descending Kansas City Center
04:47PM 38.9822 -94.4814 270° West 490 564 34,400 -1,620 Descending Kansas City Center
04:48PM 38.9803 -94.6844 269° West 506 582 32,200 -2,040 Descending Kansas City Center
04:49PM 38.9797 -94.8664 270° West 525 604 30,300 -1,080 Descending Kansas City Center
04:50PM 38.9778 -95.0742 269° West 517 595 30,000 -180 Descending Kansas City Center
04:51PM 38.9756 -95.2547 269° West 520 598 30,000 -180 Level Kansas City Center
04:52PM 38.9731 -95.4328 269° West 515 593 29,700 -1,020 Descending Kansas City Center
04:53PM 38.9697 -95.6375 269° West 510 587 28,000 -840 Descending Kansas City Center
04:54PM 38.9681 -95.8144 269° West 514 592 28,000  Level Kansas City Center
04:55PM 38.9642 -96.0178 269° West 507 583 28,000  Level Kansas City Center
04:56PM 38.9603 -96.1897 268° West 503 579 28,000  Level Kansas City Center
04:57PM 38.9556 -96.3614 268° West 501 577 28,000  Level Kansas City Center
04:58PM 38.9511 -96.5425 268° West 503 579 28,000  Level Kansas City Center
04:59PM 38.9464 -96.7214 268° West 502 578 28,000  Level Kansas City Center
05:00PM 38.9453 -96.9019 270° West 505 581 28,000  Level Kansas City Center
05:01PM 38.9400 -97.1142 268° West 498 573 28,000  Level Kansas City Center
05:02PM 38.9350 -97.2897 268° West 495 570 28,000  Level Kansas City Center
05:03PM 38.9294 -97.4656 268° West 494 568 28,000  Level Kansas City Center
05:05PM 38.9228 -97.6372 267° West 488 562 28,000  Level Kansas City Center
05:06PM 38.8911 -97.8283 258° West 491 565 28,000  Level Kansas City Center
05:07PM 38.8692 -97.9803 260° West 492 566 28,000  Level Kansas City Center
05:08PM 38.8425 -98.1486 259° West 485 558 28,000  Level Kansas City Center
05:09PM 38.8158 -98.3164 259° West 483 556 28,000  Level Kansas City Center
05:10PM 38.7828 -98.5164 258° West 481 554 28,000  Level Kansas City Center
05:11PM 38.7561 -98.6839 259° West 481 554 28,000  Level Kansas City Center
05:12PM 38.7289 -98.8508 258° West 480 552 28,000  Level Kansas City Center
05:13PM 38.7017 -99.0139 258° West 473 544 28,000  Level Kansas City Center
05:14PM 38.6756 -99.1764 258° West 469 540 28,000  Level Kansas City Center
05:15PM 38.6478 -99.3408 258° West 472 543 28,000  Level Kansas City Center
05:16PM 38.6194 -99.5058 258° West 474 545 28,000  Level Kansas City Center
05:17PM 38.5883 -99.6864 258° West 473 544 28,000  Level Kansas City Center
05:18PM 38.5569 -99.8658 257° West 467 537 28,000  Level Kansas City Center
05:19PM 38.5383 -99.9675 257° West 466 536 28,000  Level Denver Center
05:20PM 38.5067 -100.1461 257° West 464 534 28,000  Level Denver Center
05:21PM 38.4797 -100.2969 257° West 458 527 28,000  Level Denver Center
05:22PM 38.4483 -100.4739 257° West 458 527 28,000  Level Denver Center
05:23PM 38.4203 -100.6250 257° West 459 528 28,000  Level Denver Center
05:24PM 38.3931 -100.7747 257° West 456 525 28,000  Level Denver Center
05:25PM 38.3622 -100.9481 257° West 452 520 28,000  Level Denver Center
05:26PM 38.3342 -101.0944 256° West 449 517 28,000  Level Denver Center
05:27PM 38.3019 -101.2661 257° West 448 516 28,000  Level Denver Center
05:28PM 38.2744 -101.4128 257° West 447 514 28,000  Level Denver Center
05:29PM 38.2419 -101.5842 256° West 448 516 28,000 480 Level Denver Center
05:30PM 38.2144 -101.7297 257° West 444 511 29,100 1,200 Climbing Denver Center
05:31PM 38.1844 -101.8983 257° West 439 505 30,500 1,380 Climbing Denver Center
05:32PM 38.1614 -102.0386 258° West 428 493 32,000 1,260 Climbing Denver Center
05:33PM 38.1356 -102.1992 258° West 418 481 33,200 960 Climbing Denver Center
05:34PM 38.1128 -102.3342 258° West 411 473 34,000 360 Climbing Denver Center
05:35PM 38.0897 -102.4664 258° West 405 466 34,000  Level Denver Center
05:36PM 38.0653 -102.6219 259° West 403 464 34,000 180 Level Denver Center
05:37PM 38.0417 -102.7542 257° West 403 464 34,400 600 Climbing Denver Center
05:38PM 38.0144 -102.9089 257° West 403 464 35,300 780 Climbing Denver Center
05:39PM 37.9928 -103.0394 258° West 398 458 36,000 300 Climbing Denver Center
05:40PM 37.9658 -103.1897 257° West 395 455 36,000  Level Denver Center
05:41PM 37.9422 -103.3175 257° West 390 449 36,000  Level Denver Center
05:42PM 37.9197 -103.4461 258° West 392 451 36,000  Level Denver Center
05:43PM 37.8931 -103.5950 257° West 391 450 36,000  Level Denver Center
05:44PM 37.8706 -103.7219 257° West 389 448 36,000  Level Denver Center
05:45PM 37.8472 -103.8489 257° West 389 448 36,000  Level Denver Center
05:46PM 37.8203 -103.9975 257° West 391 450 36,000  Level Denver Center
05:47PM 37.7928 -104.1447 257° West 390 449 36,000  Level Denver Center
05:48PM 37.7692 -104.2711 257° West 390 449 36,000  Level Denver Center
05:49PM 37.7411 -104.4175 256° West 387 445 36,000  Level Denver Center
05:50PM 37.7175 -104.5447 257° West 389 448 36,000  Level Denver Center
05:52PM 37.6897 -104.6931 257° West 391 450 36,000  Level Denver Center
05:53PM 37.6608 -104.8419 256° West 392 451 36,000  Level Denver Center
05:54PM 37.6317 -104.9908 256° West 392 451 36,000  Level Denver Center
05:55PM 37.6069 -105.1192 256° West 395 455 36,000  Level Denver Center
05:56PM 37.5778 -105.2664 256° West 389 448 36,000  Level Denver Center
05:57PM 37.5567 -105.3742 256° West 395 455 36,000  Level Denver Center
05:58PM 37.5242 -105.5414 256° West 394 453 36,000  Level Denver Center
05:59PM 37.4986 -105.6692 256° West 395 455 36,000  Level Denver Center
06:00PM 37.4717 -105.7967 255° West 394 453 36,000  Level Denver Center
06:01PM 37.4436 -105.9453 257° West 391 450 36,000  Level Denver Center
06:02PM 37.4158 -106.0722 255° West 394 453 36,000  Level Denver Center
06:03PM 37.3864 -106.2206 256° West 392 451 36,000  Level Denver Center
06:04PM 37.3567 -106.3692 256° West 394 453 36,000  Level Denver Center
06:05PM 37.3247 -106.5186 255° West 396 456 36,000  Level Denver Center
06:06PM 37.2994 -106.6450 256° West 391 450 36,000  Level Denver Center
06:07PM 37.2678 -106.7911 255° West 390 449 36,000  Level Denver Center
06:08PM 37.2419 -106.9172 256° West 391 450 36,000  Level Denver Center
06:09PM 37.2153 -107.0444 255° West 393 452 36,000  Level Denver Center
06:10PM 37.1831 -107.1919 255° West 393 452 36,000  Level Denver Center
06:11PM 37.1561 -107.3186 255° West 394 453 36,000  Level Denver Center
06:12PM 37.1231 -107.4667 254° West 395 455 36,000  Level Denver Center
06:13PM 37.0961 -107.5958 255° West 400 460 36,000  Level Denver Center
06:14PM 37.0731 -107.7011 255° West 396 456 36,000  Level Denver Center
06:15PM 37.0361 -107.8714 255° West 395 455 36,000  Level Denver Center
06:16PM 37.0078 -107.9981 254° West 395 455 36,000  Level Denver Center
06:17PM 36.9747 -108.1481 255° West 400 460 36,000  Level Denver Center
06:19PM 36.9456 -108.2747 254° West 399 459 36,000  Level Denver Center
06:20PM 36.9128 -108.4236 255° West 398 458 36,000  Level Denver Center
06:21PM 36.8836 -108.5511 254° West 399 459 36,000  Level Denver Center
06:22PM 36.8494 -108.6983 254° West 397 457 36,000  Level Denver Center
06:23PM 36.8206 -108.8264 254° West 400 460 36,000  Level Denver Center
06:24PM 36.7914 -108.9525 254° West 398 458 36,000  Level Denver Center
06:25PM 36.7561 -109.1028 254° West 403 464 36,000  Level Denver Center
06:26PM 36.7267 -109.2297 254° West 401 461 36,000  Level Denver Center
06:27PM 36.6919 -109.3772 254° West 400 460 36,000  Level Denver Center
06:28PM 36.6625 -109.5028 254° West 397 457 36,000  Level Denver Center
06:29PM 36.6278 -109.6497 254° West 398 458 36,000  Level Denver Center
06:30PM 36.5969 -109.7775 253° West 402 463 36,000  Level Denver Center
06:31PM 36.5611 -109.9258 253° West 401 461 36,000  Level Denver Center
06:32PM 36.5256 -110.0742 253° West 402 463 36,000  Level Denver Center
06:33PM 36.4894 -110.2233 253° West 401 461 36,000  Level Denver Center
06:34PM 36.4575 -110.3561 253° West 401 461 36,000  Level Denver Center
06:35PM 36.4258 -110.4878 253° West 399 459 36,000  Level Denver Center
06:36PM 36.3925 -110.6194 253° West 400 460 36,000  Level Denver Center
06:37PM 36.3586 -110.7514 252° West 401 461 36,000  Level Denver Center
06:38PM 36.3269 -110.8825 253° West 398 458 36,000  Level Denver Center
06:39PM 36.2928 -111.0139 252° West 400 460 36,000  Level Denver Center
06:40PM 36.2678 -111.1192 254° West 399 459 36,000  Level Denver Center
06:41PM 36.2206 -111.3014 252° West 397 457 36,000  Level Denver Center
06:42PM 36.1764 -111.4297 247° West 400 460 36,000  Level Denver Center
06:43PM 36.1339 -111.5589 248° West 404 465 36,000  Level Denver Center
06:44PM 36.0906 -111.6872 247° West 403 464 36,000  Level Denver Center
06:45PM 36.0478 -111.8156 248° West 404 465 36,000  Level Denver Center
06:46PM 36.0214 -111.8922 247° West 399 459 36,000  Level Los Angeles Center
06:47PM 35.9747 -112.0311 247° West 400 460 36,000  Level Los Angeles Center
06:48PM 35.9325 -112.1556 247° West 398 458 36,000  Level Los Angeles Center
06:49PM 35.8889 -112.2800 247° West 397 457 36,000  Level Los Angeles Center
06:50PM 35.8467 -112.4058 248° West 401 461 36,000  Level Los Angeles Center
06:51PM 35.7947 -112.5556 247° West 398 458 36,000  Level Los Angeles Center
06:52PM 35.7519 -112.6806 247° West 400 460 36,000  Level Los Angeles Center
06:53PM 35.7006 -112.8297 247° West 399 459 36,000  Level Los Angeles Center
06:54PM 35.6597 -112.9483 247° West 398 458 36,000  Level Los Angeles Center
06:55PM 35.6236 -113.0497 246° West 401 461 36,000  Level Los Angeles Center
06:57PM 35.5619 -113.2244 247° West 399 459 36,000  Level Los Angeles Center
06:58PM 35.5178 -113.3531 247° West 406 467 36,000  Level Los Angeles Center
06:59PM 35.4722 -113.4814 246° West 406 467 36,000  Level Los Angeles Center
07:00PM 35.4294 -113.6017 246° West 401 461 36,000  Level Los Angeles Center
07:01PM 35.3850 -113.7250 246° West 400 460 36,000  Level Los Angeles Center
07:02PM 35.3397 -113.8497 246° West 403 464 36,000  Level Los Angeles Center
07:03PM 35.2911 -113.9831 246° West 404 465 36,000  Level Los Angeles Center
07:04PM 35.2458 -114.1075 246° West 401 461 36,000  Level Los Angeles Center
07:05PM 35.1922 -114.2567 246° West 400 460 36,000  Level Los Angeles Center
07:06PM 35.1469 -114.3811 246° West 402 463 36,000  Level Los Angeles Center
07:07PM 35.0931 -114.5317 246° West 403 464 36,000  Level Los Angeles Center
07:08PM 35.0456 -114.6564 245° Southwest 404 465 36,000  Level Los Angeles Center
07:09PM 35.0000 -114.7814 246° West 404 465 36,000  Level Los Angeles Center
07:10PM 34.9553 -114.9025 246° West 394 453 36,000  Level Los Angeles Center
07:11PM 34.9111 -115.0239 246° West 389 448 36,000  Level Los Angeles Center
07:12PM 34.8642 -115.1467 245° Southwest 396 456 36,000  Level Los Angeles Center
07:13PM 34.8097 -115.2942 246° West 397 457 36,000  Level Los Angeles Center
07:14PM 34.7631 -115.4172 245° Southwest 399 459 36,000  Level Los Angeles Center
07:15PM 34.7175 -115.5378 245° Southwest 393 452 36,000 -600 Level Los Angeles Center
07:16PM 34.6744 -115.6511 245° Southwest 397 457 34,800 -1,260 Descending Los Angeles Center
07:17PM 34.6378 -115.7503 246° West 402 463 33,400 -1,680 Descending Los Angeles Center
07:18PM 34.5789 -115.9011 245° Southwest 411 473 31,400 -1,980 Descending Los Angeles Center
07:19PM 34.5203 -116.0550 245° Southwest 420 483 29,400 -1,860 Descending Los Angeles Center
07:20PM 34.4694 -116.1872 245° Southwest 430 495 27,700 -1,200 Descending Los Angeles Center
07:21PM 34.4172 -116.3192 244° Southwest 434 499 27,000 -360 Descending Los Angeles Center
07:22PM 34.3667 -116.4519 245° Southwest 435 501 27,000 -780 Level Los Angeles Center
07:23PM 34.3147 -116.5836 244° Southwest 433 498 25,500 -1,800 Descending Los Angeles Center
07:25PM 34.2656 -116.7097 245° Southwest 418 481 23,400 -1,920 Descending Los Angeles Center
07:26PM 34.2156 -116.8347 244° Southwest 411 473 21,300 -1,980 Descending Los Angeles Center
07:27PM 34.1478 -117.0042 244° Southwest 400 460 19,000 -1,440 Descending Los Angeles Center
07:27PM 34.1167 -117.0667 239° Southwest 353 406 19,000 -720 Level Southern California TRACON
07:28PM 34.0833 -117.1667 248° West 342 394 17,900 -1,800 Descending Southern California TRACON
07:29PM 34.0500 -117.2667 248° West 346 398 15,600 -2,160 Descending Southern California TRACON
07:30PM 34.0333 -117.3833 260° West 325 374 13,600 -1,860 Descending Southern California TRACON
07:31PM 34.0167 -117.5000 260° West 318 366 11,800 -1,440 Descending Southern California TRACON
07:32PM 34.0167 -117.6000 270° West 345 397 10,700 -900 Descending Southern California TRACON
07:33PM 34.0000 -117.6833 256° West 280 322 10,000 -480 Descending Southern California TRACON
07:34PM 34.0000 -117.7833 270° West 284 327 9,800 -420 Descending Southern California TRACON
07:35PM 33.9833 -117.8667 256° West 248 285 9,200 -1,200 Descending Southern California TRACON
07:36PM 33.9833 -117.9500 270° West 234 269 7,400 -1,500 Descending Southern California TRACON
07:37PM 33.9667 -118.0167 253° West 223 257 6,300 -1,140 Descending Southern California TRACON
07:38PM 33.9667 -118.0833 270° West 200 230 5,300 -1,200 Descending Southern California TRACON
07:39PM 33.9667 -118.1500 270° West 196 226 4,100 -1,200 Descending Southern California TRACON
07:40PM 33.9500 -118.2167 253° West 193 222 3,000 -1,140 Descending Southern California TRACON
07:41PM 33.9500 -118.2833 270° West 193 222 1,900 -1,020 Descending Southern California TRACON
07:42PM 33.9419 -118.3403 260° West 176 203 900 -780 Descending Los Angeles Center
07:43PM 33.9381 -118.3903 265° West 155 178 300 -600 Descending Los Angeles Center